Costa Mediterranea — IBCF — position and weather

sailwx.info

Track history (hours):
 
Tides and Currents Weather Stations Pressure Air Temp Water Temp Dewpoint Dewpoint Depression Visibility Wind Speed Wind Dir Waves Ship Positions

Costa Mediterranea

Last reported at 2017-Aug-18 10:29 UTC. Time now 2017-Aug-18 10:51 UTC.
Position N 59°21' E 018°07'.

Length 293 m; draft 8.1 m.

Type: Passenger vessel. MMSI: 247088200.

Date/timePositionNaut miles runAvg speedWind from/ knotsBaromVisibWave heightAir tempDewpointWater temp
2017-Aug-18 10:29N 59°21' E 018°07'0 0.0
2017-Aug-18 09:59N 59°21' E 018°07'0 0.0
2017-Aug-18 09:29N 59°21' E 018°07'0 0.0
2017-Aug-18 08:58N 59°21' E 018°07'0 0.0
2017-Aug-18 08:28N 59°21' E 018°07'0 0.0
2017-Aug-18 07:58N 59°21' E 018°07'0 0.0
2017-Aug-18 07:28N 59°21' E 018°07'0 0.2
2017-Aug-18 07:00N 59°21' E 018°07'3 6.3
2017-Aug-18 06:30N 59°20' E 018°13'510.4
2017-Aug-18 06:01N 59°22' E 018°22'3 5.1
2017-Aug-18 05:30N 59°24' E 018°26'4 8.9
2017-Aug-18 05:00N 59°29' E 018°26'510.4
2017-Aug-18 04:30N 59°32' E 018°34'510.4
2017-Aug-18 04:00N 59°35' E 018°42'612.0
2017-Aug-18 03:31N 59°38' E 018°52'5 9.9
2017-Aug-18 03:00N 59°41' E 018°60'713.5
2017-Aug-18 02:31N 59°44' E 019°12'713.3
2017-Aug-18 02:00N 59°47' E 019°24'714.4
2017-Aug-18 01:30N 59°48' E 019°38'714.0
2017-Aug-18 01:00N 59°44' E 019°51'715.0
2017-Aug-18 00:30N 59°39' E 020°01'714.3
2017-Aug-18 00:00N 59°36' E 020°14'714.9
2017-Aug-17 23:30N 59°37' E 020°29'715.0
2017-Aug-17 23:00N 59°35' E 020°44'714.9
2017-Aug-17 22:30N 59°33' E 020°58'815.2
2017-Aug-17 22:00N 59°32' E 021°12'815.2
2017-Aug-17 21:31N 59°30' E 021°27'815.2
2017-Aug-17 21:01N 59°28' E 021°41'918.0
2017-Aug-17 20:30N 59°27' E 021°59'612.6
2017-Aug-17 20:00N 59°27' E 022°12'714.0
2017-Aug-17 19:30N 59°27' E 022°25'815.3
2017-Aug-17 19:00N 59°30' E 022°38'815.8
2017-Aug-17 18:30N 59°32' E 022°54'714.3
2017-Aug-17 18:00N 59°33' E 023°08'713.8
2017-Aug-17 17:31N 59°33' E 023°21'815.2
2017-Aug-17 17:01N 59°33' E 023°36'815.8
2017-Aug-17 16:31N 59°32' E 023°52'815.5
2017-Aug-17 16:00N 59°31' E 024°07'714.5
2017-Aug-17 15:31N 59°30' E 024°21'713.9
2017-Aug-17 15:00N 59°30' E 024°35'510.7
2017-Aug-17 14:30N 59°30' E 024°45'3 7.0
2017-Aug-17 14:00N 59°27' E 024°46'0 0.0
2017-Aug-17 13:29N 59°27' E 024°46'0 0.0
2017-Aug-17 12:59N 59°27' E 024°46'0 0.0
2017-Aug-17 12:29N 59°27' E 024°46'0 0.0
2017-Aug-17 11:59N 59°27' E 024°46'0 0.0
2017-Aug-17 11:29N 59°27' E 024°46'0 0.0
2017-Aug-17 10:59N 59°27' E 024°46'0 0.0
2017-Aug-17 10:31N 59°27' E 024°46'0 0.0
2017-Aug-17 10:00N 59°27' E 024°46'0 0.0
2017-Aug-17 09:30N 59°27' E 024°46'0 0.0
2017-Aug-17 09:00N 59°27' E 024°46'0 0.0
2017-Aug-17 08:30N 59°27' E 024°46'0 0.0
2017-Aug-17 08:00N 59°27' E 024°46'0 0.0
2017-Aug-17 07:30N 59°27' E 024°46'0 0.0
2017-Aug-17 07:00N 59°27' E 024°46'0 0.0
2017-Aug-17 06:30N 59°27' E 024°46'0 0.0
2017-Aug-17 06:00N 59°27' E 024°46'0 0.2
2017-Aug-17 05:31N 59°27' E 024°46'4 7.8
2017-Aug-17 05:00N 59°31' E 024°44'713.0
2017-Aug-17 04:30N 59°37' E 024°40'612.9
2017-Aug-17 04:01N 59°42' E 024°48'714.3
2017-Aug-17 03:31N 59°47' E 024°57'714.2
2017-Aug-17 03:00N 59°51' E 025°09'714.4
2017-Aug-17 02:30N 59°52' E 025°23'714.6
2017-Aug-17 02:00N 59°54' E 025°37'714.4
2017-Aug-17 01:30N 59°55' E 025°51'714.6
2017-Aug-17 01:01N 59°57' E 026°05'714.6
2017-Aug-17 00:31N 59°59' E 026°19'714.6
2017-Aug-17 00:01N 60°01' E 026°33'714.5
2017-Aug-16 23:31N 60°00' E 026°48'714.4
2017-Aug-16 23:01N 59°59' E 027°02'714.5
2017-Aug-16 22:31N 60°03' E 027°15'714.7
2017-Aug-16 22:01N 60°07' E 027°27'714.6
2017-Aug-16 21:31N 60°11' E 027°39'713.7
2017-Aug-16 21:00N 60°11' E 027°53'917.4
2017-Aug-16 20:31N 60°09' E 028°10'714.6
2017-Aug-16 20:00N 60°05' E 028°22'714.2
2017-Aug-16 19:30N 60°03' E 028°36'611.8
2017-Aug-16 19:00N 60°03' E 028°48'714.4
2017-Aug-16 18:30N 60°02' E 029°02'814.8
2017-Aug-16 18:00N 60°02' E 029°17'611.7
2017-Aug-16 17:30N 60°02' E 029°29'712.2
2017-Aug-16 16:57N 59°59' E 029°42'4 9.5
2017-Aug-16 16:30N 59°57' E 029°49'611.2
2017-Aug-16 16:00N 59°55' E 029°59'5 9.7
2017-Aug-16 15:30N 59°57' E 030°09'1 2.4
2017-Aug-16 15:00N 59°57' E 030°11'0 0.0
2017-Aug-16 14:26N 59°57' E 030°11'0 0.0
2017-Aug-16 13:59N 59°57' E 030°11'0 0.0
2017-Aug-16 13:29N 59°57' E 030°11'0 0.0
2017-Aug-16 13:00N 59°57' E 030°11'0 0.0
2017-Aug-16 12:28N 59°57' E 030°11'0 0.0
2017-Aug-16 12:00N 59°57' E 030°11'0 0.0
2017-Aug-16 11:28N 59°57' E 030°11'0 0.0
2017-Aug-16 11:00N 59°57' E 030°11'0 0.0
2017-Aug-16 10:29N 59°57' E 030°11'0 0.0
2017-Aug-16 10:00N 59°57' E 030°11'0 0.0
2017-Aug-16 09:30N 59°57' E 030°11'0 0.0
2017-Aug-16 09:00N 59°57' E 030°11'0 0.0
2017-Aug-16 08:31N 59°57' E 030°11'0 0.0
2017-Aug-16 07:59N 59°57' E 030°11'0 0.0
2017-Aug-16 07:29N 59°57' E 030°11'0 0.0
2017-Aug-16 07:00N 59°57' E 030°11'0 0.0
2017-Aug-16 06:30N 59°57' E 030°11'0 0.0
2017-Aug-16 05:59N 59°57' E 030°11'0 0.0
2017-Aug-16 05:31N 59°57' E 030°11'0 0.0
2017-Aug-16 05:00N 59°57' E 030°11'0 0.0
2017-Aug-16 04:28N 59°57' E 030°11'0 0.0
2017-Aug-16 04:00N 59°57' E 030°11'0 0.0
2017-Aug-16 03:29N 59°57' E 030°11'0 0.0
2017-Aug-16 03:00N 59°57' E 030°11'0 0.0
2017-Aug-16 02:27N 59°57' E 030°11'0 0.0
2017-Aug-16 01:57N 59°57' E 030°11'0 0.0
2017-Aug-16 01:29N 59°57' E 030°11'0 0.0
2017-Aug-16 00:59N 59°57' E 030°11'0 0.0
2017-Aug-16 00:30N 59°57' E 030°11'0 0.0
2017-Aug-15 23:59N 59°57' E 030°11'0 0.0
2017-Aug-15 23:30N 59°57' E 030°11'0 0.0
2017-Aug-15 22:59N 59°57' E 030°11'0 0.0
2017-Aug-15 22:29N 59°57' E 030°11'0 0.0
2017-Aug-15 22:01N 59°57' E 030°11'0 0.0
2017-Aug-15 21:30N 59°57' E 030°11'0 0.0
2017-Aug-15 21:00N 59°57' E 030°11'0 0.0
2017-Aug-15 20:30N 59°57' E 030°11'0 0.0
2017-Aug-15 19:59N 59°57' E 030°11'0 0.0
2017-Aug-15 19:29N 59°57' E 030°11'0 0.0
2017-Aug-15 19:01N 59°57' E 030°11'0 0.0
2017-Aug-15 18:30N 59°57' E 030°11'0 0.0
2017-Aug-15 17:58N 59°57' E 030°11'0 0.0
2017-Aug-15 17:30N 59°57' E 030°11'0 0.0
2017-Aug-15 16:58N 59°57' E 030°11'0 0.0
2017-Aug-15 16:30N 59°57' E 030°11'0 0.0
2017-Aug-15 16:01N 59°57' E 030°11'0 0.0
2017-Aug-15 15:30N 59°57' E 030°11'0 0.0
2017-Aug-15 14:59N 59°57' E 030°11'0 0.0
2017-Aug-15 14:28N 59°57' E 030°11'0 0.0
2017-Aug-15 14:00N 59°57' E 030°11'0 0.0
2017-Aug-15 13:29N 59°57' E 030°11'0 0.0
2017-Aug-15 13:00N 59°57' E 030°11'0 0.0
2017-Aug-15 12:28N 59°57' E 030°11'0 0.0
2017-Aug-15 12:00N 59°57' E 030°11'0 0.0
2017-Aug-15 11:29N 59°57' E 030°11'0 0.0
2017-Aug-15 11:00N 59°57' E 030°11'0 0.0
2017-Aug-15 10:30N 59°57' E 030°11'0 0.0
2017-Aug-15 10:00N 59°57' E 030°11'0 0.0
2017-Aug-15 09:29N 59°57' E 030°11'0 0.0
2017-Aug-15 09:00N 59°57' E 030°11'0 0.0
2017-Aug-15 08:29N 59°57' E 030°11'0 0.0
2017-Aug-15 07:59N 59°57' E 030°11'0 0.0
2017-Aug-15 07:24N 59°57' E 030°11'0 0.0
2017-Aug-15 06:59N 59°57' E 030°11'0 0.0
2017-Aug-15 06:30N 59°57' E 030°11'0 0.0
2017-Aug-15 05:58N 59°57' E 030°11'0 0.0
2017-Aug-15 05:30N 59°57' E 030°11'0 0.0
2017-Aug-15 04:59N 59°57' E 030°11'0 0.0
2017-Aug-15 04:31N 59°57' E 030°11'0 0.0
2017-Aug-15 04:00N 59°57' E 030°11'0 0.2
2017-Aug-15 03:31N 59°57' E 030°11'2 4.5
2017-Aug-15 03:00N 59°57' E 030°06'5 9.0
2017-Aug-15 02:30N 59°56' E 029°58'5 9.9
2017-Aug-15 02:00N 59°58' E 029°48'4 8.4
2017-Aug-15 01:30N 59°60' E 029°41'611.5
2017-Aug-15 01:00N 60°01' E 029°30'612.1
2017-Aug-15 00:31N 60°02' E 029°18'816.2
2017-Aug-15 00:00N 60°02' E 029°02'917.9
2017-Aug-14 23:30N 60°02' E 028°44'918.2
2017-Aug-14 23:01N 60°03' E 028°26'917.6
2017-Aug-14 22:31N 60°08' E 028°11'917.8
2017-Aug-14 22:01N 60°10' E 027°53'918.6
2017-Aug-14 21:30N 60°08' E 027°35'918.2
2017-Aug-14 21:01N 60°03' E 027°19'714.8
2017-Aug-14 20:31N 59°59' E 027°07'713.9
2017-Aug-14 20:00N 59°59' E 026°53'815.9
2017-Aug-14 19:30N 59°59' E 026°37'713.8
2017-Aug-14 19:00N 59°57' E 026°24'714.8
2017-Aug-14 18:30N 59°56' E 026°10'714.9
2017-Aug-14 18:00N 59°54' E 025°55'815.1
2017-Aug-14 17:30N 59°52' E 025°41'714.7
2017-Aug-14 17:00N 59°53' E 025°26'815.3
2017-Aug-14 16:30N 59°56' E 025°13'815.2
2017-Aug-14 16:00N 59°60' E 024°59'611.8
2017-Aug-14 15:30N 60°05' E 024°54'4 7.6
2017-Aug-14 14:58N 60°09' E 024°55'0 0.0
2017-Aug-14 14:28N 60°09' E 024°55'0 0.0
2017-Aug-14 13:58N 60°09' E 024°55'0 0.0
2017-Aug-14 13:28N 60°09' E 024°55'0 0.0
2017-Aug-14 12:58N 60°09' E 024°55'0 0.0
2017-Aug-14 12:28N 60°09' E 024°55'0 0.0
2017-Aug-14 12:00N 60°09' E 024°55'0 0.0
2017-Aug-14 11:28N 60°09' E 024°55'0 0.0
2017-Aug-14 10:58N 60°09' E 024°55'0 0.0
2017-Aug-14 10:28N 60°09' E 024°55'0 0.0
2017-Aug-14 09:59N 60°09' E 024°55'0 0.0
2017-Aug-14 09:27N 60°09' E 024°55'0 0.0
2017-Aug-14 09:00N 60°09' E 024°55'0 0.0
2017-Aug-14 08:28N 60°09' E 024°55'0 0.0
2017-Aug-14 08:00N 60°09' E 024°55'0 0.0
2017-Aug-14 07:26N 60°09' E 024°55'0 0.0
2017-Aug-14 06:59N 60°09' E 024°55'0 0.0
2017-Aug-14 06:26N 60°09' E 024°55'0 0.0
2017-Aug-14 05:59N 60°09' E 024°55'0 0.0
2017-Aug-14 05:17N 60°09' E 024°55'0 0.0
2017-Aug-14 04:56N 60°09' E 024°55'0 0.0
2017-Aug-14 04:27N 60°09' E 024°55'1 2.0
2017-Aug-14 04:01N 60°08' E 024°54'611.1
2017-Aug-14 03:30N 60°03' E 024°54'612.0
2017-Aug-14 03:00N 59°57' E 024°56'713.4
2017-Aug-14 02:30N 59°51' E 024°50'713.7
2017-Aug-14 02:01N 59°46' E 024°40'714.0
2017-Aug-14 01:30N 59°44' E 024°27'714.0
2017-Aug-14 01:00N 59°42' E 024°14'713.9
2017-Aug-14 00:30N 59°40' E 024°00'714.1
2017-Aug-14 00:00N 59°38' E 023°47'713.9
2017-Aug-13 23:30N 59°36' E 023°34'713.7
2017-Aug-13 23:00N 59°34' E 023°21'713.8
2017-Aug-13 22:31N 59°32' E 023°08'713.9
2017-Aug-13 22:01N 59°29' E 022°55'714.0
2017-Aug-13 21:30N 59°27' E 022°42'713.8
2017-Aug-13 21:00N 59°24' E 022°30'713.6
2017-Aug-13 20:30N 59°22' E 022°17'713.9
2017-Aug-13 20:00N 59°22' E 022°03'713.9
2017-Aug-13 19:30N 59°23' E 021°50'713.8
2017-Aug-13 19:00N 59°23' E 021°36'713.8
2017-Aug-13 18:30N 59°23' E 021°23'713.7
2017-Aug-13 18:01N 59°23' E 021°09'713.7
2017-Aug-13 17:30N 59°23' E 020°56'713.8
2017-Aug-13 17:00N 59°23' E 020°42'713.8
2017-Aug-13 16:30N 59°23' E 020°28'713.3
2017-Aug-13 16:00N 59°25' E 020°16'713.8
2017-Aug-13 15:31N 59°29' E 020°05'713.2
2017-Aug-13 15:00N 59°35' E 020°01'713.7
2017-Aug-13 14:30N 59°40' E 019°51'713.9
2017-Aug-13 14:01N 59°45' E 019°42'713.4
2017-Aug-13 13:31N 59°47' E 019°29'612.8
2017-Aug-13 13:01N 59°45' E 019°17'713.3
2017-Aug-13 12:30N 59°43' E 019°05'612.0
2017-Aug-13 12:01N 59°39' E 018°55'510.9
2017-Aug-13 11:31N 59°36' E 018°47'611.3
2017-Aug-13 11:01N 59°33' E 018°37'4 8.3
2017-Aug-13 10:31N 59°31' E 018°30'5 9.9
2017-Aug-13 10:01N 59°27' E 018°25'4 8.5
2017-Aug-13 09:30N 59°22' E 018°27'4 7.5
2017-Aug-13 09:00N 59°22' E 018°19'510.6
2017-Aug-13 08:30N 59°20' E 018°10'1 2.0
2017-Aug-13 07:56N 59°21' E 018°08'0 0.0
2017-Aug-13 07:28N 59°21' E 018°08'0 0.0
2017-Aug-13 06:58N 59°21' E 018°08'0 0.0
2017-Aug-13 06:30N 59°21' E 018°08'0 0.0
2017-Aug-13 06:00N 59°21' E 018°08'0 0.0
2017-Aug-13 05:30N 59°21' E 018°08'0 0.0
2017-Aug-13 04:59N 59°21' E 018°08'0 0.0
2017-Aug-13 04:29N 59°21' E 018°08'0 0.0
2017-Aug-13 03:59N 59°21' E 018°08'0 0.0
2017-Aug-13 03:13N 59°21' E 018°08'0 0.0
2017-Aug-13 02:55N 59°21' E 018°08'0 0.0
2017-Aug-13 02:28N 59°21' E 018°08'0 0.0
2017-Aug-13 01:57N 59°21' E 018°08'0 0.0
2017-Aug-13 01:30N 59°21' E 018°08'0 0.0
2017-Aug-13 00:59N 59°21' E 018°08'0 0.0
2017-Aug-13 00:29N 59°21' E 018°08'0 0.0
2017-Aug-12 23:59N 59°21' E 018°08'0 0.0
2017-Aug-12 23:29N 59°21' E 018°08'0 0.0
2017-Aug-12 22:58N 59°21' E 018°08'0 0.0
2017-Aug-12 22:27N 59°21' E 018°08'0 0.0
2017-Aug-12 21:57N 59°21' E 018°08'0 0.0
2017-Aug-12 21:30N 59°21' E 018°08'0 0.0
2017-Aug-12 20:57N 59°21' E 018°08'0 0.0
2017-Aug-12 20:27N 59°21' E 018°08'0 0.0
2017-Aug-12 19:56N 59°21' E 018°08'0 0.0
2017-Aug-12 19:22N 59°21' E 018°08'0 0.0
2017-Aug-12 19:00N 59°21' E 018°08'0 0.0
2017-Aug-12 18:26N 59°21' E 018°08'0 0.0
2017-Aug-12 17:56N 59°21' E 018°08'0 0.0
2017-Aug-12 17:28N 59°21' E 018°08'0 0.0
2017-Aug-12 16:58N 59°21' E 018°08'0 0.0
2017-Aug-12 16:28N 59°21' E 018°08'0 0.0
2017-Aug-12 15:58N 59°21' E 018°08'0 0.0
2017-Aug-12 15:30N 59°21' E 018°08'0 0.0
2017-Aug-12 15:00N 59°21' E 018°08'0 0.0
2017-Aug-12 14:26N 59°21' E 018°08'0 0.0
2017-Aug-12 13:55N 59°21' E 018°08'0 0.0
2017-Aug-12 13:26N 59°21' E 018°08'0 0.0
2017-Aug-12 12:58N 59°21' E 018°08'0 0.0
2017-Aug-12 12:28N 59°21' E 018°08'0 0.0
2017-Aug-12 12:00N 59°21' E 018°08'0 0.0
2017-Aug-12 11:30N 59°21' E 018°08'0 0.0
2017-Aug-12 10:59N 59°21' E 018°08'0 0.0
2017-Aug-12 10:25N 59°21' E 018°08'0 0.0
2017-Aug-12 09:55N 59°21' E 018°08'0 0.0
2017-Aug-12 09:25N 59°21' E 018°08'0 0.0
2017-Aug-12 08:57N 59°21' E 018°08'0 0.0
2017-Aug-12 08:21N 59°21' E 018°08'0 0.0
2017-Aug-12 07:57N 59°21' E 018°08'0 0.0
2017-Aug-12 07:27N 59°21' E 018°08'0 0.0
2017-Aug-12 06:57N 59°21' E 018°08'0 0.0
2017-Aug-12 06:27N 59°21' E 018°08'0 0.0
2017-Aug-12 05:56N 59°21' E 018°08'0 0.0
2017-Aug-12 05:29N 59°21' E 018°08'0 0.0
2017-Aug-12 04:55N 59°21' E 018°08'0 0.0
2017-Aug-12 04:25N 59°21' E 018°08'0 0.0
2017-Aug-12 03:58N 59°21' E 018°08'0 0.0
2017-Aug-12 03:25N 59°21' E 018°08'0 0.0
2017-Aug-12 03:00N 59°21' E 018°08'0 0.0
2017-Aug-12 02:30N 59°21' E 018°08'0 0.0
2017-Aug-12 02:00N 59°21' E 018°08'0 0.0
2017-Aug-12 01:29N 59°21' E 018°08'0 0.0
2017-Aug-12 00:59N 59°21' E 018°08'0 0.0
2017-Aug-12 00:28N 59°21' E 018°08'0 0.0
2017-Aug-12 00:00N 59°21' E 018°08'0 0.0
2017-Aug-11 23:27N 59°21' E 018°08'0 0.0
2017-Aug-11 23:00N 59°21' E 018°08'0 0.0
2017-Aug-11 22:26N 59°21' E 018°08'0 0.0
2017-Aug-11 21:58N 59°21' E 018°08'0 0.0
2017-Aug-11 21:29N 59°21' E 018°08'0 0.0
2017-Aug-11 20:56N 59°21' E 018°08'0 0.0
2017-Aug-11 20:29N 59°21' E 018°08'0 0.0
2017-Aug-11 19:57N 59°21' E 018°08'0 0.0
2017-Aug-11 19:29N 59°21' E 018°08'0 0.0
2017-Aug-11 18:58N 59°21' E 018°08'0 0.0
2017-Aug-11 18:30N 59°21' E 018°08'0 0.0
2017-Aug-11 18:00N 59°21' E 018°08'0 0.0
2017-Aug-11 17:30N 59°21' E 018°08'0 0.0
2017-Aug-11 17:00N 59°21' E 018°08'0 0.0
2017-Aug-11 16:30N 59°21' E 018°08'0 0.0
2017-Aug-11 16:00N 59°21' E 018°08'0 0.0
2017-Aug-11 15:30N 59°21' E 018°08'0 0.0
2017-Aug-11 14:56N 59°21' E 018°08'0 0.0
2017-Aug-11 13:56N 59°21' E 018°08'0 0.0
2017-Aug-11 13:26N 59°21' E 018°08'0 0.0
2017-Aug-11 12:56N 59°21' E 018°08'0 0.0
2017-Aug-11 12:20N 59°21' E 018°08'0 0.0
2017-Aug-11 11:56N 59°21' E 018°08'0 0.0
2017-Aug-11 11:26N 59°21' E 018°08'0 0.0
2017-Aug-11 10:54N 59°21' E 018°08'0 0.0
2017-Aug-11 10:30N 59°21' E 018°08'0 0.0
2017-Aug-11 09:54N 59°21' E 018°08'0 0.0
2017-Aug-11 09:30N 59°21' E 018°08'0 0.0
2017-Aug-11 09:00N 59°21' E 018°08'0 0.0
2017-Aug-11 08:30N 59°21' E 018°08'0 0.0
2017-Aug-11 07:54N 59°21' E 018°08'0 0.0
2017-Aug-11 07:30N 59°21' E 018°08'0 0.0
2017-Aug-11 07:00N 59°21' E 018°08'0 0.1
2017-Aug-11 06:30N 59°21' E 018°08'2 5.0
2017-Aug-11 06:00N 59°20' E 018°13'510.8
2017-Aug-11 05:30N 59°22' E 018°22'3 4.8
2017-Aug-11 04:58N 59°24' E 018°26'4 8.4
2017-Aug-11 04:31N 59°28' E 018°26'510.4
2017-Aug-11 04:00N 59°32' E 018°33'510.2
2017-Aug-11 03:29N 59°35' E 018°42'612.0
2017-Aug-11 03:01N 59°38' E 018°51'5 9.7
2017-Aug-11 02:31N 59°41' E 018°59'713.5
2017-Aug-11 02:00N 59°44' E 019°11'713.3
2017-Aug-11 01:31N 59°46' E 019°23'713.4
2017-Aug-11 01:01N 59°48' E 019°36'815.9
2017-Aug-11 00:30N 59°45' E 019°50'917.8
2017-Aug-11 00:01N 59°39' E 020°03'816.6
2017-Aug-10 23:30N 59°37' E 020°18'917.6
2017-Aug-10 23:00N 59°36' E 020°36'917.8
2017-Aug-10 22:30N 59°34' E 020°53'917.7
2017-Aug-10 22:00N 59°31' E 021°09'917.6
2017-Aug-10 21:31N 59°29' E 021°26'917.4
2017-Aug-10 21:00N 59°28' E 021°43'917.3
2017-Aug-10 20:30N 59°28' E 022°00'917.2
2017-Aug-10 20:00N 59°28' E 022°17'917.6
2017-Aug-10 19:30N 59°32' E 022°32'714.8
2017-Aug-10 19:00N 59°33' E 022°47'714.3
2017-Aug-10 18:30N 59°33' E 023°01'714.3
2017-Aug-10 18:00N 59°34' E 023°15'714.0
2017-Aug-10 17:30N 59°34' E 023°28'714.0
2017-Aug-10 17:00N 59°32' E 023°41'713.9
2017-Aug-10 16:30N 59°31' E 023°55'714.1
2017-Aug-10 16:00N 59°31' E 024°09'714.2
2017-Aug-10 15:30N 59°30' E 024°23'713.7
2017-Aug-10 15:01N 59°31' E 024°36'5 9.2
2017-Aug-10 14:31N 59°31' E 024°45'4 6.4
2017-Aug-10 13:57N 59°27' E 024°46'0 0.0
2017-Aug-10 13:30N 59°27' E 024°46'0 0.0
2017-Aug-10 13:00N 59°27' E 024°46'0 0.0
2017-Aug-10 12:30N 59°27' E 024°46'0 0.0
2017-Aug-10 12:00N 59°27' E 024°46'0 0.0
2017-Aug-10 11:30N 59°27' E 024°46'0 0.0
2017-Aug-10 10:57N 59°27' E 024°46'0 0.0
2017-Aug-10 10:30N 59°27' E 024°46'0 0.0
2017-Aug-10 10:00N 59°27' E 024°46'0 0.0
2017-Aug-10 09:30N 59°27' E 024°46'0 0.0
2017-Aug-10 09:00N 59°27' E 024°46'0 0.0
2017-Aug-10 08:30N 59°27' E 024°46'0 0.0
2017-Aug-10 07:59N 59°27' E 024°46'0 0.0
2017-Aug-10 07:29N 59°27' E 024°46'0 0.0
2017-Aug-10 07:00N 59°27' E 024°46'0 0.0
2017-Aug-10 06:28N 59°27' E 024°46'0 0.0
2017-Aug-10 05:58N 59°27' E 024°46'0 1.0
2017-Aug-10 05:30N 59°27' E 024°46'5 9.6
2017-Aug-10 05:01N 59°32' E 024°43'612.2
2017-Aug-10 04:30N 59°38' E 024°40'815.1
2017-Aug-10 04:00N 59°43' E 024°51'714.3
2017-Aug-10 03:30N 59°49' E 024°60'714.2
2017-Aug-10 03:01N 59°52' E 025°13'815.0
2017-Aug-10 02:30N 59°53' E 025°27'714.8
2017-Aug-10 02:01N 59°54' E 025°42'714.6
2017-Aug-10 01:30N 59°56' E 025°56'714.5
2017-Aug-10 01:00N 59°58' E 026°10'714.3
2017-Aug-10 00:30N 60°00' E 026°24'714.2
2017-Aug-10 00:00N 60°01' E 026°38'714.6
2017-Aug-09 23:31N 59°60' E 026°52'714.0
2017-Aug-09 23:00N 59°60' E 027°06'714.4
2017-Aug-09 22:31N 60°04' E 027°18'714.4
2017-Aug-09 22:01N 60°08' E 027°31'714.5
2017-Aug-09 21:31N 60°12' E 027°43'714.0
2017-Aug-09 21:01N 60°11' E 027°57'815.2
2017-Aug-09 20:30N 60°09' E 028°11'713.0
2017-Aug-09 20:01N 60°05' E 028°23'713.7
2017-Aug-09 19:31N 60°03' E 028°35'714.2
2017-Aug-09 19:01N 60°03' E 028°50'714.1
2017-Aug-09 18:30N 60°02' E 029°04'714.2
2017-Aug-09 18:00N 60°02' E 029°18'1311.8
2017-Aug-09 16:52N 59°59' E 029°44'410.1
2017-Aug-09 16:30N 59°57' E 029°50'611.1
2017-Aug-09 16:00N 59°55' E 030°01'5 9.7
2017-Aug-09 15:30N 59°57' E 030°10'1 1.4
2017-Aug-09 15:00N 59°57' E 030°11'0 0.0
2017-Aug-09 14:28N 59°57' E 030°11'0 0.0
2017-Aug-09 14:00N 59°57' E 030°11'0 0.0
2017-Aug-09 13:30N 59°57' E 030°11'0 0.0
2017-Aug-09 12:59N 59°57' E 030°11'0 0.0
2017-Aug-09 12:28N 59°57' E 030°11'0 0.0
2017-Aug-09 12:00N 59°57' E 030°11'0 0.0
2017-Aug-09 11:30N 59°57' E 030°11'0 0.0
2017-Aug-09 10:58N 59°57' E 030°11'0 0.0
2017-Aug-09 10:28N 59°57' E 030°11'0 0.0
2017-Aug-09 10:00N 59°57' E 030°11'0 0.0
2017-Aug-09 09:30N 59°57' E 030°11'0 0.0
2017-Aug-09 08:59N 59°57' E 030°11'0 0.0
2017-Aug-09 08:28N 59°57' E 030°11'0 0.0
2017-Aug-09 08:00N 59°57' E 030°11'0 0.0
2017-Aug-09 07:29N 59°57' E 030°11'0 0.0
2017-Aug-09 07:01N 59°57' E 030°11'0 0.0
2017-Aug-09 06:29N 59°57' E 030°11'0 0.0
2017-Aug-09 05:55N 59°57' E 030°11'0 0.0
2017-Aug-09 05:24N 59°57' E 030°11'0 0.0
2017-Aug-09 04:59N 59°57' E 030°11'0 0.0
2017-Aug-09 04:29N 59°57' E 030°11'0 0.0
2017-Aug-09 04:00N 59°57' E 030°11'0 0.0
2017-Aug-09 03:28N 59°57' E 030°11'0 0.0
2017-Aug-09 03:00N 59°57' E 030°11'0 0.0
2017-Aug-09 02:29N 59°57' E 030°11'0 0.0
2017-Aug-09 01:58N 59°57' E 030°11'0 0.0
2017-Aug-09 01:30N 59°57' E 030°11'0 0.0
2017-Aug-09 01:00N 59°57' E 030°11'0 0.0
2017-Aug-09 00:28N 59°57' E 030°11'0 0.0
2017-Aug-09 00:01N 59°57' E 030°11'0 0.0
2017-Aug-08 23:30N 59°57' E 030°11'0 0.0
2017-Aug-08 23:01N 59°57' E 030°11'0 0.0
2017-Aug-08 22:30N 59°57' E 030°11'0 0.0
2017-Aug-08 22:00N 59°57' E 030°11'0 0.0
2017-Aug-08 21:29N 59°57' E 030°11'0 0.0
2017-Aug-08 21:00N 59°57' E 030°11'0 0.0
2017-Aug-08 20:30N 59°57' E 030°11'0 0.0
2017-Aug-08 20:00N 59°57' E 030°11'0 0.0
2017-Aug-08 19:30N 59°57' E 030°11'0 0.0
2017-Aug-08 18:59N 59°57' E 030°11'0 0.0
2017-Aug-08 18:30N 59°57' E 030°11'0 0.0
2017-Aug-08 18:00N 59°57' E 030°11'0 0.0
2017-Aug-08 17:29N 59°57' E 030°11'0 0.0
2017-Aug-08 16:59N 59°57' E 030°11'0 0.0
2017-Aug-08 16:28N 59°57' E 030°11'0 0.0
2017-Aug-08 16:00N 59°57' E 030°11'0 0.0
2017-Aug-08 15:30N 59°57' E 030°11'0 0.0
2017-Aug-08 14:58N 59°57' E 030°11'0 0.0
2017-Aug-08 14:30N 59°57' E 030°11'0 0.0
2017-Aug-08 13:58N 59°57' E 030°11'0 0.0
2017-Aug-08 13:27N 59°57' E 030°11'0 0.0
2017-Aug-08 12:59N 59°57' E 030°11'0 0.0
2017-Aug-08 12:28N 59°57' E 030°11'0 0.0
2017-Aug-08 12:00N 59°57' E 030°11'0 0.0
2017-Aug-08 11:29N 59°57' E 030°11'0 0.0
2017-Aug-08 11:00N 59°57' E 030°11'  
Track history (hours):
 
Tides and Currents Weather Stations Pressure Air Temp Water Temp Dewpoint Dewpoint Depression Visibility Wind Speed Wind Dir Waves Ship Positions

Costa Mediterranea

Last reported at 2017-Aug-18 10:29 UTC. Time now 2017-Aug-18 10:51 UTC.
Position N 59°21' E 018°07'.

Length 293 m; draft 8.1 m.

Type: Passenger vessel. MMSI: 247088200.

Date/timePositionNaut miles runAvg speedWind from/ knotsBaromVisibWave heightAir tempDewpointWater temp
2017-Aug-18 10:29N 59°21' E 018°07'0 0.0
2017-Aug-18 09:59N 59°21' E 018°07'0 0.0
2017-Aug-18 09:29N 59°21' E 018°07'0 0.0
2017-Aug-18 08:58N 59°21' E 018°07'0 0.0
2017-Aug-18 08:28N 59°21' E 018°07'0 0.0
2017-Aug-18 07:58N 59°21' E 018°07'0 0.0
2017-Aug-18 07:28N 59°21' E 018°07'0 0.2
2017-Aug-18 07:00N 59°21' E 018°07'3 6.3
2017-Aug-18 06:30N 59°20' E 018°13'510.4
2017-Aug-18 06:01N 59°22' E 018°22'3 5.1
2017-Aug-18 05:30N 59°24' E 018°26'4 8.9
2017-Aug-18 05:00N 59°29' E 018°26'510.4
2017-Aug-18 04:30N 59°32' E 018°34'510.4
2017-Aug-18 04:00N 59°35' E 018°42'612.0
2017-Aug-18 03:31N 59°38' E 018°52'5 9.9
2017-Aug-18 03:00N 59°41' E 018°60'713.5
2017-Aug-18 02:31N 59°44' E 019°12'713.3
2017-Aug-18 02:00N 59°47' E 019°24'714.4
2017-Aug-18 01:30N 59°48' E 019°38'714.0
2017-Aug-18 01:00N 59°44' E 019°51'715.0
2017-Aug-18 00:30N 59°39' E 020°01'714.3
2017-Aug-18 00:00N 59°36' E 020°14'714.9
2017-Aug-17 23:30N 59°37' E 020°29'715.0
2017-Aug-17 23:00N 59°35' E 020°44'714.9
2017-Aug-17 22:30N 59°33' E 020°58'815.2
2017-Aug-17 22:00N 59°32' E 021°12'815.2
2017-Aug-17 21:31N 59°30' E 021°27'815.2
2017-Aug-17 21:01N 59°28' E 021°41'918.0
2017-Aug-17 20:30N 59°27' E 021°59'612.6
2017-Aug-17 20:00N 59°27' E 022°12'714.0
2017-Aug-17 19:30N 59°27' E 022°25'815.3
2017-Aug-17 19:00N 59°30' E 022°38'815.8
2017-Aug-17 18:30N 59°32' E 022°54'714.3
2017-Aug-17 18:00N 59°33' E 023°08'713.8
2017-Aug-17 17:31N 59°33' E 023°21'815.2
2017-Aug-17 17:01N 59°33' E 023°36'815.8
2017-Aug-17 16:31N 59°32' E 023°52'815.5
2017-Aug-17 16:00N 59°31' E 024°07'714.5
2017-Aug-17 15:31N 59°30' E 024°21'713.9
2017-Aug-17 15:00N 59°30' E 024°35'510.7
2017-Aug-17 14:30N 59°30' E 024°45'3 7.0
2017-Aug-17 14:00N 59°27' E 024°46'0 0.0
2017-Aug-17 13:29N 59°27' E 024°46'0 0.0
2017-Aug-17 12:59N 59°27' E 024°46'0 0.0
2017-Aug-17 12:29N 59°27' E 024°46'0 0.0
2017-Aug-17 11:59N 59°27' E 024°46'0 0.0
2017-Aug-17 11:29N 59°27' E 024°46'0 0.0
2017-Aug-17 10:59N 59°27' E 024°46'0 0.0
2017-Aug-17 10:31N 59°27' E 024°46'0 0.0
2017-Aug-17 10:00N 59°27' E 024°46'0 0.0
2017-Aug-17 09:30N 59°27' E 024°46'0 0.0
2017-Aug-17 09:00N 59°27' E 024°46'0 0.0
2017-Aug-17 08:30N 59°27' E 024°46'0 0.0
2017-Aug-17 08:00N 59°27' E 024°46'0 0.0
2017-Aug-17 07:30N 59°27' E 024°46'0 0.0
2017-Aug-17 07:00N 59°27' E 024°46'0 0.0
2017-Aug-17 06:30N 59°27' E 024°46'0 0.0
2017-Aug-17 06:00N 59°27' E 024°46'0 0.2
2017-Aug-17 05:31N 59°27' E 024°46'4 7.8
2017-Aug-17 05:00N 59°31' E 024°44'713.0
2017-Aug-17 04:30N 59°37' E 024°40'612.9
2017-Aug-17 04:01N 59°42' E 024°48'714.3
2017-Aug-17 03:31N 59°47' E 024°57'714.2
2017-Aug-17 03:00N 59°51' E 025°09'714.4
2017-Aug-17 02:30N 59°52' E 025°23'714.6
2017-Aug-17 02:00N 59°54' E 025°37'714.4
2017-Aug-17 01:30N 59°55' E 025°51'714.6
2017-Aug-17 01:01N 59°57' E 026°05'714.6
2017-Aug-17 00:31N 59°59' E 026°19'714.6
2017-Aug-17 00:01N 60°01' E 026°33'714.5
2017-Aug-16 23:31N 60°00' E 026°48'714.4
2017-Aug-16 23:01N 59°59' E 027°02'714.5
2017-Aug-16 22:31N 60°03' E 027°15'714.7
2017-Aug-16 22:01N 60°07' E 027°27'714.6
2017-Aug-16 21:31N 60°11' E 027°39'713.7
2017-Aug-16 21:00N 60°11' E 027°53'917.4
2017-Aug-16 20:31N 60°09' E 028°10'714.6
2017-Aug-16 20:00N 60°05' E 028°22'714.2
2017-Aug-16 19:30N 60°03' E 028°36'611.8
2017-Aug-16 19:00N 60°03' E 028°48'714.4
2017-Aug-16 18:30N 60°02' E 029°02'814.8
2017-Aug-16 18:00N 60°02' E 029°17'611.7
2017-Aug-16 17:30N 60°02' E 029°29'712.2
2017-Aug-16 16:57N 59°59' E 029°42'4 9.5
2017-Aug-16 16:30N 59°57' E 029°49'611.2
2017-Aug-16 16:00N 59°55' E 029°59'5 9.7
2017-Aug-16 15:30N 59°57' E 030°09'1 2.4
2017-Aug-16 15:00N 59°57' E 030°11'0 0.0
2017-Aug-16 14:26N 59°57' E 030°11'0 0.0
2017-Aug-16 13:59N 59°57' E 030°11'0 0.0
2017-Aug-16 13:29N 59°57' E 030°11'0 0.0
2017-Aug-16 13:00N 59°57' E 030°11'0 0.0
2017-Aug-16 12:28N 59°57' E 030°11'0 0.0
2017-Aug-16 12:00N 59°57' E 030°11'0 0.0
2017-Aug-16 11:28N 59°57' E 030°11'0 0.0
2017-Aug-16 11:00N 59°57' E 030°11'0 0.0
2017-Aug-16 10:29N 59°57' E 030°11'0 0.0
2017-Aug-16 10:00N 59°57' E 030°11'0 0.0
2017-Aug-16 09:30N 59°57' E 030°11'0 0.0
2017-Aug-16 09:00N 59°57' E 030°11'0 0.0
2017-Aug-16 08:31N 59°57' E 030°11'0 0.0
2017-Aug-16 07:59N 59°57' E 030°11'0 0.0
2017-Aug-16 07:29N 59°57' E 030°11'0 0.0
2017-Aug-16 07:00N 59°57' E 030°11'0 0.0
2017-Aug-16 06:30N 59°57' E 030°11'0 0.0
2017-Aug-16 05:59N 59°57' E 030°11'0 0.0
2017-Aug-16 05:31N 59°57' E 030°11'0 0.0
2017-Aug-16 05:00N 59°57' E 030°11'0 0.0
2017-Aug-16 04:28N 59°57' E 030°11'0 0.0
2017-Aug-16 04:00N 59°57' E 030°11'0 0.0
2017-Aug-16 03:29N 59°57' E 030°11'0 0.0
2017-Aug-16 03:00N 59°57' E 030°11'0 0.0
2017-Aug-16 02:27N 59°57' E 030°11'0 0.0
2017-Aug-16 01:57N 59°57' E 030°11'0 0.0
2017-Aug-16 01:29N 59°57' E 030°11'0 0.0
2017-Aug-16 00:59N 59°57' E 030°11'0 0.0
2017-Aug-16 00:30N 59°57' E 030°11'0 0.0
2017-Aug-15 23:59N 59°57' E 030°11'0 0.0
2017-Aug-15 23:30N 59°57' E 030°11'0 0.0
2017-Aug-15 22:59N 59°57' E 030°11'0 0.0
2017-Aug-15 22:29N 59°57' E 030°11'0 0.0
2017-Aug-15 22:01N 59°57' E 030°11'0 0.0
2017-Aug-15 21:30N 59°57' E 030°11'0 0.0
2017-Aug-15 21:00N 59°57' E 030°11'0 0.0
2017-Aug-15 20:30N 59°57' E 030°11'0 0.0
2017-Aug-15 19:59N 59°57' E 030°11'0 0.0
2017-Aug-15 19:29N 59°57' E 030°11'0 0.0
2017-Aug-15 19:01N 59°57' E 030°11'0 0.0
2017-Aug-15 18:30N 59°57' E 030°11'0 0.0
2017-Aug-15 17:58N 59°57' E 030°11'0 0.0
2017-Aug-15 17:30N 59°57' E 030°11'0 0.0
2017-Aug-15 16:58N 59°57' E 030°11'0 0.0
2017-Aug-15 16:30N 59°57' E 030°11'0 0.0
2017-Aug-15 16:01N 59°57' E 030°11'0 0.0
2017-Aug-15 15:30N 59°57' E 030°11'0 0.0
2017-Aug-15 14:59N 59°57' E 030°11'0 0.0
2017-Aug-15 14:28N 59°57' E 030°11'0 0.0
2017-Aug-15 14:00N 59°57' E 030°11'0 0.0
2017-Aug-15 13:29N 59°57' E 030°11'0 0.0
2017-Aug-15 13:00N 59°57' E 030°11'0 0.0
2017-Aug-15 12:28N 59°57' E 030°11'0 0.0
2017-Aug-15 12:00N 59°57' E 030°11'0 0.0
2017-Aug-15 11:29N 59°57' E 030°11'0 0.0
2017-Aug-15 11:00N 59°57' E 030°11'0 0.0
2017-Aug-15 10:30N 59°57' E 030°11'0 0.0
2017-Aug-15 10:00N 59°57' E 030°11'0 0.0
2017-Aug-15 09:29N 59°57' E 030°11'0 0.0
2017-Aug-15 09:00N 59°57' E 030°11'0 0.0
2017-Aug-15 08:29N 59°57' E 030°11'0 0.0
2017-Aug-15 07:59N 59°57' E 030°11'0 0.0
2017-Aug-15 07:24N 59°57' E 030°11'0 0.0
2017-Aug-15 06:59N 59°57' E 030°11'0 0.0
2017-Aug-15 06:30N 59°57' E 030°11'0 0.0
2017-Aug-15 05:58N 59°57' E 030°11'0 0.0
2017-Aug-15 05:30N 59°57' E 030°11'0 0.0
2017-Aug-15 04:59N 59°57' E 030°11'0 0.0
2017-Aug-15 04:31N 59°57' E 030°11'0 0.0
2017-Aug-15 04:00N 59°57' E 030°11'0 0.2
2017-Aug-15 03:31N 59°57' E 030°11'2 4.5
2017-Aug-15 03:00N 59°57' E 030°06'5 9.0
2017-Aug-15 02:30N 59°56' E 029°58'5 9.9
2017-Aug-15 02:00N 59°58' E 029°48'4 8.4
2017-Aug-15 01:30N 59°60' E 029°41'611.5
2017-Aug-15 01:00N 60°01' E 029°30'612.1
2017-Aug-15 00:31N 60°02' E 029°18'816.2
2017-Aug-15 00:00N 60°02' E 029°02'917.9
2017-Aug-14 23:30N 60°02' E 028°44'918.2
2017-Aug-14 23:01N 60°03' E 028°26'917.6
2017-Aug-14 22:31N 60°08' E 028°11'917.8
2017-Aug-14 22:01N 60°10' E 027°53'918.6
2017-Aug-14 21:30N 60°08' E 027°35'918.2
2017-Aug-14 21:01N 60°03' E 027°19'714.8
2017-Aug-14 20:31N 59°59' E 027°07'713.9
2017-Aug-14 20:00N 59°59' E 026°53'815.9
2017-Aug-14 19:30N 59°59' E 026°37'713.8
2017-Aug-14 19:00N 59°57' E 026°24'714.8
2017-Aug-14 18:30N 59°56' E 026°10'714.9
2017-Aug-14 18:00N 59°54' E 025°55'815.1
2017-Aug-14 17:30N 59°52' E 025°41'714.7
2017-Aug-14 17:00N 59°53' E 025°26'815.3
2017-Aug-14 16:30N 59°56' E 025°13'815.2
2017-Aug-14 16:00N 59°60' E 024°59'611.8
2017-Aug-14 15:30N 60°05' E 024°54'4 7.6
2017-Aug-14 14:58N 60°09' E 024°55'0 0.0
2017-Aug-14 14:28N 60°09' E 024°55'0 0.0
2017-Aug-14 13:58N 60°09' E 024°55'0 0.0
2017-Aug-14 13:28N 60°09' E 024°55'0 0.0
2017-Aug-14 12:58N 60°09' E 024°55'0 0.0
2017-Aug-14 12:28N 60°09' E 024°55'0 0.0
2017-Aug-14 12:00N 60°09' E 024°55'0 0.0
2017-Aug-14 11:28N 60°09' E 024°55'0 0.0
2017-Aug-14 10:58N 60°09' E 024°55'0 0.0
2017-Aug-14 10:28N 60°09' E 024°55'0 0.0
2017-Aug-14 09:59N 60°09' E 024°55'0 0.0
2017-Aug-14 09:27N 60°09' E 024°55'0 0.0
2017-Aug-14 09:00N 60°09' E 024°55'0 0.0
2017-Aug-14 08:28N 60°09' E 024°55'0 0.0
2017-Aug-14 08:00N 60°09' E 024°55'0 0.0
2017-Aug-14 07:26N 60°09' E 024°55'0 0.0
2017-Aug-14 06:59N 60°09' E 024°55'0 0.0
2017-Aug-14 06:26N 60°09' E 024°55'0 0.0
2017-Aug-14 05:59N 60°09' E 024°55'0 0.0
2017-Aug-14 05:17N 60°09' E 024°55'0 0.0
2017-Aug-14 04:56N 60°09' E 024°55'0 0.0
2017-Aug-14 04:27N 60°09' E 024°55'1 2.0
2017-Aug-14 04:01N 60°08' E 024°54'611.1
2017-Aug-14 03:30N 60°03' E 024°54'612.0
2017-Aug-14 03:00N 59°57' E 024°56'713.4
2017-Aug-14 02:30N 59°51' E 024°50'713.7
2017-Aug-14 02:01N 59°46' E 024°40'714.0
2017-Aug-14 01:30N 59°44' E 024°27'714.0
2017-Aug-14 01:00N 59°42' E 024°14'713.9
2017-Aug-14 00:30N 59°40' E 024°00'714.1
2017-Aug-14 00:00N 59°38' E 023°47'713.9
2017-Aug-13 23:30N 59°36' E 023°34'713.7
2017-Aug-13 23:00N 59°34' E 023°21'713.8
2017-Aug-13 22:31N 59°32' E 023°08'713.9
2017-Aug-13 22:01N 59°29' E 022°55'714.0
2017-Aug-13 21:30N 59°27' E 022°42'713.8
2017-Aug-13 21:00N 59°24' E 022°30'713.6
2017-Aug-13 20:30N 59°22' E 022°17'713.9
2017-Aug-13 20:00N 59°22' E 022°03'713.9
2017-Aug-13 19:30N 59°23' E 021°50'713.8
2017-Aug-13 19:00N 59°23' E 021°36'713.8
2017-Aug-13 18:30N 59°23' E 021°23'713.7
2017-Aug-13 18:01N 59°23' E 021°09'713.7
2017-Aug-13 17:30N 59°23' E 020°56'713.8
2017-Aug-13 17:00N 59°23' E 020°42'713.8
2017-Aug-13 16:30N 59°23' E 020°28'713.3
2017-Aug-13 16:00N 59°25' E 020°16'713.8
2017-Aug-13 15:31N 59°29' E 020°05'713.2
2017-Aug-13 15:00N 59°35' E 020°01'713.7
2017-Aug-13 14:30N 59°40' E 019°51'713.9
2017-Aug-13 14:01N 59°45' E 019°42'713.4
2017-Aug-13 13:31N 59°47' E 019°29'612.8
2017-Aug-13 13:01N 59°45' E 019°17'713.3
2017-Aug-13 12:30N 59°43' E 019°05'612.0
2017-Aug-13 12:01N 59°39' E 018°55'510.9
2017-Aug-13 11:31N 59°36' E 018°47'611.3
2017-Aug-13 11:01N 59°33' E 018°37'4 8.3
2017-Aug-13 10:31N 59°31' E 018°30'5 9.9
2017-Aug-13 10:01N 59°27' E 018°25'4 8.5
2017-Aug-13 09:30N 59°22' E 018°27'4 7.5
2017-Aug-13 09:00N 59°22' E 018°19'510.6
2017-Aug-13 08:30N 59°20' E 018°10'1 2.0
2017-Aug-13 07:56N 59°21' E 018°08'0 0.0
2017-Aug-13 07:28N 59°21' E 018°08'0 0.0
2017-Aug-13 06:58N 59°21' E 018°08'0 0.0
2017-Aug-13 06:30N 59°21' E 018°08'0 0.0
2017-Aug-13 06:00N 59°21' E 018°08'0 0.0
2017-Aug-13 05:30N 59°21' E 018°08'0 0.0
2017-Aug-13 04:59N 59°21' E 018°08'0 0.0
2017-Aug-13 04:29N 59°21' E 018°08'0 0.0
2017-Aug-13 03:59N 59°21' E 018°08'0 0.0
2017-Aug-13 03:13N 59°21' E 018°08'0 0.0
2017-Aug-13 02:55N 59°21' E 018°08'0 0.0
2017-Aug-13 02:28N 59°21' E 018°08'0 0.0
2017-Aug-13 01:57N 59°21' E 018°08'0 0.0
2017-Aug-13 01:30N 59°21' E 018°08'0 0.0
2017-Aug-13 00:59N 59°21' E 018°08'0 0.0
2017-Aug-13 00:29N 59°21' E 018°08'0 0.0
2017-Aug-12 23:59N 59°21' E 018°08'0 0.0
2017-Aug-12 23:29N 59°21' E 018°08'0 0.0
2017-Aug-12 22:58N 59°21' E 018°08'0 0.0
2017-Aug-12 22:27N 59°21' E 018°08'0 0.0
2017-Aug-12 21:57N 59°21' E 018°08'0 0.0
2017-Aug-12 21:30N 59°21' E 018°08'0 0.0
2017-Aug-12 20:57N 59°21' E 018°08'0 0.0
2017-Aug-12 20:27N 59°21' E 018°08'0 0.0
2017-Aug-12 19:56N 59°21' E 018°08'0 0.0
2017-Aug-12 19:22N 59°21' E 018°08'0 0.0
2017-Aug-12 19:00N 59°21' E 018°08'0 0.0
2017-Aug-12 18:26N 59°21' E 018°08'0 0.0
2017-Aug-12 17:56N 59°21' E 018°08'0 0.0
2017-Aug-12 17:28N 59°21' E 018°08'0 0.0
2017-Aug-12 16:58N 59°21' E 018°08'0 0.0
2017-Aug-12 16:28N 59°21' E 018°08'0 0.0
2017-Aug-12 15:58N 59°21' E 018°08'0 0.0
2017-Aug-12 15:30N 59°21' E 018°08'0 0.0
2017-Aug-12 15:00N 59°21' E 018°08'0 0.0
2017-Aug-12 14:26N 59°21' E 018°08'0 0.0
2017-Aug-12 13:55N 59°21' E 018°08'0 0.0
2017-Aug-12 13:26N 59°21' E 018°08'0 0.0
2017-Aug-12 12:58N 59°21' E 018°08'0 0.0
2017-Aug-12 12:28N 59°21' E 018°08'0 0.0
2017-Aug-12 12:00N 59°21' E 018°08'0 0.0
2017-Aug-12 11:30N 59°21' E 018°08'0 0.0
2017-Aug-12 10:59N 59°21' E 018°08'0 0.0
2017-Aug-12 10:25N 59°21' E 018°08'0 0.0
2017-Aug-12 09:55N 59°21' E 018°08'0 0.0
2017-Aug-12 09:25N 59°21' E 018°08'0 0.0
2017-Aug-12 08:57N 59°21' E 018°08'0 0.0
2017-Aug-12 08:21N 59°21' E 018°08'0 0.0
2017-Aug-12 07:57N 59°21' E 018°08'0 0.0
2017-Aug-12 07:27N 59°21' E 018°08'0 0.0
2017-Aug-12 06:57N 59°21' E 018°08'0 0.0
2017-Aug-12 06:27N 59°21' E 018°08'0 0.0
2017-Aug-12 05:56N 59°21' E 018°08'0 0.0
2017-Aug-12 05:29N 59°21' E 018°08'0 0.0
2017-Aug-12 04:55N 59°21' E 018°08'0 0.0
2017-Aug-12 04:25N 59°21' E 018°08'0 0.0
2017-Aug-12 03:58N 59°21' E 018°08'0 0.0
2017-Aug-12 03:25N 59°21' E 018°08'0 0.0
2017-Aug-12 03:00N 59°21' E 018°08'0 0.0
2017-Aug-12 02:30N 59°21' E 018°08'0 0.0
2017-Aug-12 02:00N 59°21' E 018°08'0 0.0
2017-Aug-12 01:29N 59°21' E 018°08'0 0.0
2017-Aug-12 00:59N 59°21' E 018°08'0 0.0
2017-Aug-12 00:28N 59°21' E 018°08'0 0.0
2017-Aug-12 00:00N 59°21' E 018°08'0 0.0
2017-Aug-11 23:27N 59°21' E 018°08'0 0.0
2017-Aug-11 23:00N 59°21' E 018°08'0 0.0
2017-Aug-11 22:26N 59°21' E 018°08'0 0.0
2017-Aug-11 21:58N 59°21' E 018°08'0 0.0
2017-Aug-11 21:29N 59°21' E 018°08'0 0.0
2017-Aug-11 20:56N 59°21' E 018°08'0 0.0
2017-Aug-11 20:29N 59°21' E 018°08'0 0.0
2017-Aug-11 19:57N 59°21' E 018°08'0 0.0
2017-Aug-11 19:29N 59°21' E 018°08'0 0.0
2017-Aug-11 18:58N 59°21' E 018°08'0 0.0
2017-Aug-11 18:30N 59°21' E 018°08'0 0.0
2017-Aug-11 18:00N 59°21' E 018°08'0 0.0
2017-Aug-11 17:30N 59°21' E 018°08'0 0.0
2017-Aug-11 17:00N 59°21' E 018°08'0 0.0
2017-Aug-11 16:30N 59°21' E 018°08'0 0.0
2017-Aug-11 16:00N 59°21' E 018°08'0 0.0
2017-Aug-11 15:30N 59°21' E 018°08'0 0.0
2017-Aug-11 14:56N 59°21' E 018°08'0 0.0
2017-Aug-11 13:56N 59°21' E 018°08'0 0.0
2017-Aug-11 13:26N 59°21' E 018°08'0 0.0
2017-Aug-11 12:56N 59°21' E 018°08'0 0.0
2017-Aug-11 12:20N 59°21' E 018°08'0 0.0
2017-Aug-11 11:56N 59°21' E 018°08'0 0.0
2017-Aug-11 11:26N 59°21' E 018°08'0 0.0
2017-Aug-11 10:54N 59°21' E 018°08'0 0.0
2017-Aug-11 10:30N 59°21' E 018°08'0 0.0
2017-Aug-11 09:54N 59°21' E 018°08'0 0.0
2017-Aug-11 09:30N 59°21' E 018°08'0 0.0
2017-Aug-11 09:00N 59°21' E 018°08'0 0.0
2017-Aug-11 08:30N 59°21' E 018°08'0 0.0
2017-Aug-11 07:54N 59°21' E 018°08'0 0.0
2017-Aug-11 07:30N 59°21' E 018°08'0 0.0
2017-Aug-11 07:00N 59°21' E 018°08'0 0.1
2017-Aug-11 06:30N 59°21' E 018°08'2 5.0
2017-Aug-11 06:00N 59°20' E 018°13'510.8
2017-Aug-11 05:30N 59°22' E 018°22'3 4.8
2017-Aug-11 04:58N 59°24' E 018°26'4 8.4
2017-Aug-11 04:31N 59°28' E 018°26'510.4
2017-Aug-11 04:00N 59°32' E 018°33'510.2
2017-Aug-11 03:29N 59°35' E 018°42'612.0
2017-Aug-11 03:01N 59°38' E 018°51'5 9.7
2017-Aug-11 02:31N 59°41' E 018°59'713.5
2017-Aug-11 02:00N 59°44' E 019°11'713.3
2017-Aug-11 01:31N 59°46' E 019°23'713.4
2017-Aug-11 01:01N 59°48' E 019°36'815.9
2017-Aug-11 00:30N 59°45' E 019°50'917.8
2017-Aug-11 00:01N 59°39' E 020°03'816.6
2017-Aug-10 23:30N 59°37' E 020°18'917.6
2017-Aug-10 23:00N 59°36' E 020°36'917.8
2017-Aug-10 22:30N 59°34' E 020°53'917.7
2017-Aug-10 22:00N 59°31' E 021°09'917.6
2017-Aug-10 21:31N 59°29' E 021°26'917.4
2017-Aug-10 21:00N 59°28' E 021°43'917.3
2017-Aug-10 20:30N 59°28' E 022°00'917.2
2017-Aug-10 20:00N 59°28' E 022°17'917.6
2017-Aug-10 19:30N 59°32' E 022°32'714.8
2017-Aug-10 19:00N 59°33' E 022°47'714.3
2017-Aug-10 18:30N 59°33' E 023°01'714.3
2017-Aug-10 18:00N 59°34' E 023°15'714.0
2017-Aug-10 17:30N 59°34' E 023°28'714.0
2017-Aug-10 17:00N 59°32' E 023°41'713.9
2017-Aug-10 16:30N 59°31' E 023°55'714.1
2017-Aug-10 16:00N 59°31' E 024°09'714.2
2017-Aug-10 15:30N 59°30' E 024°23'713.7
2017-Aug-10 15:01N 59°31' E 024°36'5 9.2
2017-Aug-10 14:31N 59°31' E 024°45'4 6.4
2017-Aug-10 13:57N 59°27' E 024°46'0 0.0
2017-Aug-10 13:30N 59°27' E 024°46'0 0.0
2017-Aug-10 13:00N 59°27' E 024°46'0 0.0
2017-Aug-10 12:30N 59°27' E 024°46'0 0.0
2017-Aug-10 12:00N 59°27' E 024°46'0 0.0
2017-Aug-10 11:30N 59°27' E 024°46'0 0.0
2017-Aug-10 10:57N 59°27' E 024°46'0 0.0
2017-Aug-10 10:30N 59°27' E 024°46'0 0.0
2017-Aug-10 10:00N 59°27' E 024°46'0 0.0
2017-Aug-10 09:30N 59°27' E 024°46'0 0.0
2017-Aug-10 09:00N 59°27' E 024°46'0 0.0
2017-Aug-10 08:30N 59°27' E 024°46'0 0.0
2017-Aug-10 07:59N 59°27' E 024°46'0 0.0
2017-Aug-10 07:29N 59°27' E 024°46'0 0.0
2017-Aug-10 07:00N 59°27' E 024°46'0 0.0
2017-Aug-10 06:28N 59°27' E 024°46'0 0.0
2017-Aug-10 05:58N 59°27' E 024°46'0 1.0
2017-Aug-10 05:30N 59°27' E 024°46'5 9.6
2017-Aug-10 05:01N 59°32' E 024°43'612.2
2017-Aug-10 04:30N 59°38' E 024°40'815.1
2017-Aug-10 04:00N 59°43' E 024°51'714.3
2017-Aug-10 03:30N 59°49' E 024°60'714.2
2017-Aug-10 03:01N 59°52' E 025°13'815.0
2017-Aug-10 02:30N 59°53' E 025°27'714.8
2017-Aug-10 02:01N 59°54' E 025°42'714.6
2017-Aug-10 01:30N 59°56' E 025°56'714.5
2017-Aug-10 01:00N 59°58' E 026°10'714.3
2017-Aug-10 00:30N 60°00' E 026°24'714.2
2017-Aug-10 00:00N 60°01' E 026°38'714.6
2017-Aug-09 23:31N 59°60' E 026°52'714.0
2017-Aug-09 23:00N 59°60' E 027°06'714.4
2017-Aug-09 22:31N 60°04' E 027°18'714.4
2017-Aug-09 22:01N 60°08' E 027°31'714.5
2017-Aug-09 21:31N 60°12' E 027°43'714.0
2017-Aug-09 21:01N 60°11' E 027°57'815.2
2017-Aug-09 20:30N 60°09' E 028°11'713.0
2017-Aug-09 20:01N 60°05' E 028°23'713.7
2017-Aug-09 19:31N 60°03' E 028°35'714.2
2017-Aug-09 19:01N 60°03' E 028°50'714.1
2017-Aug-09 18:30N 60°02' E 029°04'714.2
2017-Aug-09 18:00N 60°02' E 029°18'1311.8
2017-Aug-09 16:52N 59°59' E 029°44'410.1
2017-Aug-09 16:30N 59°57' E 029°50'611.1
2017-Aug-09 16:00N 59°55' E 030°01'5 9.7
2017-Aug-09 15:30N 59°57' E 030°10'1 1.4
2017-Aug-09 15:00N 59°57' E 030°11'0 0.0
2017-Aug-09 14:28N 59°57' E 030°11'0 0.0
2017-Aug-09 14:00N 59°57' E 030°11'0 0.0
2017-Aug-09 13:30N 59°57' E 030°11'0 0.0
2017-Aug-09 12:59N 59°57' E 030°11'0 0.0
2017-Aug-09 12:28N 59°57' E 030°11'0 0.0
2017-Aug-09 12:00N 59°57' E 030°11'0 0.0
2017-Aug-09 11:30N 59°57' E 030°11'0 0.0
2017-Aug-09 10:58N 59°57' E 030°11'0 0.0
2017-Aug-09 10:28N 59°57' E 030°11'0 0.0
2017-Aug-09 10:00N 59°57' E 030°11'0 0.0
2017-Aug-09 09:30N 59°57' E 030°11'0 0.0
2017-Aug-09 08:59N 59°57' E 030°11'0 0.0
2017-Aug-09 08:28N 59°57' E 030°11'0 0.0
2017-Aug-09 08:00N 59°57' E 030°11'0 0.0
2017-Aug-09 07:29N 59°57' E 030°11'0 0.0
2017-Aug-09 07:01N 59°57' E 030°11'0 0.0
2017-Aug-09 06:29N 59°57' E 030°11'0 0.0
2017-Aug-09 05:55N 59°57' E 030°11'0 0.0
2017-Aug-09 05:24N 59°57' E 030°11'0 0.0
2017-Aug-09 04:59N 59°57' E 030°11'0 0.0
2017-Aug-09 04:29N 59°57' E 030°11'0 0.0
2017-Aug-09 04:00N 59°57' E 030°11'0 0.0
2017-Aug-09 03:28N 59°57' E 030°11'0 0.0
2017-Aug-09 03:00N 59°57' E 030°11'0 0.0
2017-Aug-09 02:29N 59°57' E 030°11'0 0.0
2017-Aug-09 01:58N 59°57' E 030°11'0 0.0
2017-Aug-09 01:30N 59°57' E 030°11'0 0.0
2017-Aug-09 01:00N 59°57' E 030°11'0 0.0
2017-Aug-09 00:28N 59°57' E 030°11'0 0.0
2017-Aug-09 00:01N 59°57' E 030°11'0 0.0
2017-Aug-08 23:30N 59°57' E 030°11'0 0.0
2017-Aug-08 23:01N 59°57' E 030°11'0 0.0
2017-Aug-08 22:30N 59°57' E 030°11'0 0.0
2017-Aug-08 22:00N 59°57' E 030°11'0 0.0
2017-Aug-08 21:29N 59°57' E 030°11'0 0.0
2017-Aug-08 21:00N 59°57' E 030°11'0 0.0
2017-Aug-08 20:30N 59°57' E 030°11'0 0.0
2017-Aug-08 20:00N 59°57' E 030°11'0 0.0
2017-Aug-08 19:30N 59°57' E 030°11'0 0.0
2017-Aug-08 18:59N 59°57' E 030°11'0 0.0
2017-Aug-08 18:30N 59°57' E 030°11'0 0.0
2017-Aug-08 18:00N 59°57' E 030°11'0 0.0
2017-Aug-08 17:29N 59°57' E 030°11'0 0.0
2017-Aug-08 16:59N 59°57' E 030°11'0 0.0
2017-Aug-08 16:28N 59°57' E 030°11'0 0.0
2017-Aug-08 16:00N 59°57' E 030°11'0 0.0
2017-Aug-08 15:30N 59°57' E 030°11'0 0.0
2017-Aug-08 14:58N 59°57' E 030°11'0 0.0
2017-Aug-08 14:30N 59°57' E 030°11'0 0.0
2017-Aug-08 13:58N 59°57' E 030°11'0 0.0
2017-Aug-08 13:27N 59°57' E 030°11'0 0.0
2017-Aug-08 12:59N 59°57' E 030°11'0 0.0
2017-Aug-08 12:28N 59°57' E 030°11'0 0.0
2017-Aug-08 12:00N 59°57' E 030°11'0 0.0
2017-Aug-08 11:29N 59°57' E 030°11'0 0.0
2017-Aug-08 11:00N 59°57' E 030°11'  

Dump ship's entire track history